sensor_id;sensor_type;location;lat;lon;timestamp;P1;durP1;ratioP1;P2;durP2;ratioP2
12271;SDS011;6198;51.446;6.698;2023-10-31T00:00:12;4.30;;;4.00;;
12271;SDS011;6198;51.446;6.698;2023-10-31T00:02:38;3.88;;;3.58;;
12271;SDS011;6198;51.446;6.698;2023-10-31T00:05:04;4.43;;;3.37;;
12271;SDS011;6198;51.446;6.698;2023-10-31T00:07:30;4.15;;;3.75;;
12271;SDS011;6198;51.446;6.698;2023-10-31T00:09:56;4.10;;;3.70;;
12271;SDS011;6198;51.446;6.698;2023-10-31T00:12:22;4.43;;;4.03;;
12271;SDS011;6198;51.446;6.698;2023-10-31T00:14:48;5.90;;;5.33;;
12271;SDS011;6198;51.446;6.698;2023-10-31T00:17:14;5.80;;;5.30;;
12271;SDS011;6198;51.446;6.698;2023-10-31T00:19:39;7.40;;;6.90;;
12271;SDS011;6198;51.446;6.698;2023-10-31T00:22:05;7.23;;;6.60;;
12271;SDS011;6198;51.446;6.698;2023-10-31T00:24:31;6.97;;;6.43;;
12271;SDS011;6198;51.446;6.698;2023-10-31T00:26:58;6.70;;;6.20;;
12271;SDS011;6198;51.446;6.698;2023-10-31T00:29:24;6.03;;;5.27;;
12271;SDS011;6198;51.446;6.698;2023-10-31T00:31:50;5.57;;;5.07;;
12271;SDS011;6198;51.446;6.698;2023-10-31T00:34:16;5.20;;;4.80;;
12271;SDS011;6198;51.446;6.698;2023-10-31T00:36:42;4.87;;;3.97;;
12271;SDS011;6198;51.446;6.698;2023-10-31T00:39:08;3.67;;;3.37;;
12271;SDS011;6198;51.446;6.698;2023-10-31T00:41:34;4.13;;;3.67;;
12271;SDS011;6198;51.446;6.698;2023-10-31T00:44:00;2.43;;;2.33;;
12271;SDS011;6198;51.446;6.698;2023-10-31T00:46:26;3.47;;;2.43;;
12271;SDS011;6198;51.446;6.698;2023-10-31T00:48:52;3.33;;;2.67;;
12271;SDS011;6198;51.446;6.698;2023-10-31T00:51:18;2.67;;;2.13;;
12271;SDS011;6198;51.446;6.698;2023-10-31T00:53:44;1.93;;;1.80;;
12271;SDS011;6198;51.446;6.698;2023-10-31T00:56:10;2.20;;;2.00;;
12271;SDS011;6198;51.446;6.698;2023-10-31T00:58:36;3.03;;;2.10;;
12271;SDS011;6198;51.446;6.698;2023-10-31T01:01:02;2.53;;;2.10;;
12271;SDS011;6198;51.446;6.698;2023-10-31T01:03:28;3.57;;;2.17;;
12271;SDS011;6198;51.446;6.698;2023-10-31T01:05:54;2.73;;;2.40;;
12271;SDS011;6198;51.446;6.698;2023-10-31T01:08:20;3.83;;;2.58;;
12271;SDS011;6198;51.446;6.698;2023-10-31T01:10:45;4.53;;;2.97;;
12271;SDS011;6198;51.446;6.698;2023-10-31T01:13:11;4.87;;;4.00;;
12271;SDS011;6198;51.446;6.698;2023-10-31T01:15:37;5.07;;;4.57;;
12271;SDS011;6198;51.446;6.698;2023-10-31T01:18:03;8.97;;;5.77;;
12271;SDS011;6198;51.446;6.698;2023-10-31T01:20:30;8.23;;;7.10;;
12271;SDS011;6198;51.446;6.698;2023-10-31T01:22:56;8.17;;;7.37;;
12271;SDS011;6198;51.446;6.698;2023-10-31T01:25:22;7.87;;;6.50;;
12271;SDS011;6198;51.446;6.698;2023-10-31T01:27:48;7.80;;;7.00;;
12271;SDS011;6198;51.446;6.698;2023-10-31T01:30:14;9.63;;;8.43;;
12271;SDS011;6198;51.446;6.698;2023-10-31T01:32:40;9.13;;;8.40;;
12271;SDS011;6198;51.446;6.698;2023-10-31T01:35:06;10.98;;;10.00;;
12271;SDS011;6198;51.446;6.698;2023-10-31T01:37:32;10.93;;;9.70;;
12271;SDS011;6198;51.446;6.698;2023-10-31T01:39:58;10.30;;;9.47;;
12271;SDS011;6198;51.446;6.698;2023-10-31T01:42:24;11.43;;;10.50;;
12271;SDS011;6198;51.446;6.698;2023-10-31T01:44:50;11.53;;;10.43;;
12271;SDS011;6198;51.446;6.698;2023-10-31T01:47:16;11.17;;;10.03;;
12271;SDS011;6198;51.446;6.698;2023-10-31T01:49:42;12.25;;;11.05;;
12271;SDS011;6198;51.446;6.698;2023-10-31T01:52:08;11.10;;;10.03;;
12271;SDS011;6198;51.446;6.698;2023-10-31T01:54:34;10.63;;;9.63;;
12271;SDS011;6198;51.446;6.698;2023-10-31T01:57:01;11.30;;;10.10;;
12271;SDS011;6198;51.446;6.698;2023-10-31T01:59:28;11.10;;;9.83;;
12271;SDS011;6198;51.446;6.698;2023-10-31T02:01:57;13.33;;;10.00;;
12271;SDS011;6198;51.446;6.698;2023-10-31T02:04:23;11.18;;;9.95;;
12271;SDS011;6198;51.446;6.698;2023-10-31T02:06:49;9.70;;;8.83;;
12271;SDS011;6198;51.446;6.698;2023-10-31T02:09:15;12.27;;;8.73;;
12271;SDS011;6198;51.446;6.698;2023-10-31T02:11:41;9.23;;;8.33;;
12271;SDS011;6198;51.446;6.698;2023-10-31T02:14:07;12.43;;;8.83;;
12271;SDS011;6198;51.446;6.698;2023-10-31T02:16:33;12.13;;;9.40;;
12271;SDS011;6198;51.446;6.698;2023-10-31T02:18:59;16.03;;;10.23;;
12271;SDS011;6198;51.446;6.698;2023-10-31T02:21:25;12.80;;;9.90;;
12271;SDS011;6198;51.446;6.698;2023-10-31T02:23:58;13.67;;;11.17;;
12271;SDS011;6198;51.446;6.698;2023-10-31T02:26:34;14.83;;;10.80;;
12271;SDS011;6198;51.446;6.698;2023-10-31T02:29:00;16.80;;;12.67;;
12271;SDS011;6198;51.446;6.698;2023-10-31T02:31:26;16.00;;;12.93;;
12271;SDS011;6198;51.446;6.698;2023-10-31T02:33:52;18.67;;;15.87;;
12271;SDS011;6198;51.446;6.698;2023-10-31T02:36:18;18.30;;;16.50;;
12271;SDS011;6198;51.446;6.698;2023-10-31T02:38:44;20.37;;;16.53;;
12271;SDS011;6198;51.446;6.698;2023-10-31T02:41:11;19.43;;;16.37;;
12271;SDS011;6198;51.446;6.698;2023-10-31T02:43:37;25.40;;;17.17;;
12271;SDS011;6198;51.446;6.698;2023-10-31T02:46:03;21.53;;;18.00;;
12271;SDS011;6198;51.446;6.698;2023-10-31T02:48:29;20.30;;;18.00;;
12271;SDS011;6198;51.446;6.698;2023-10-31T02:51:02;24.23;;;18.33;;
12271;SDS011;6198;51.446;6.698;2023-10-31T02:53:28;22.90;;;17.57;;
12271;SDS011;6198;51.446;6.698;2023-10-31T02:55:54;25.00;;;17.50;;
12271;SDS011;6198;51.446;6.698;2023-10-31T02:58:20;22.50;;;17.80;;
12271;SDS011;6198;51.446;6.698;2023-10-31T03:00:46;20.77;;;17.13;;
12271;SDS011;6198;51.446;6.698;2023-10-31T03:03:12;20.07;;;17.57;;
12271;SDS011;6198;51.446;6.698;2023-10-31T03:05:38;24.07;;;17.40;;
12271;SDS011;6198;51.446;6.698;2023-10-31T03:08:04;20.37;;;17.60;;
12271;SDS011;6198;51.446;6.698;2023-10-31T03:10:32;22.57;;;17.20;;
12271;SDS011;6198;51.446;6.698;2023-10-31T03:12:58;19.17;;;16.37;;
12271;SDS011;6198;51.446;6.698;2023-10-31T03:15:24;19.17;;;16.77;;
12271;SDS011;6198;51.446;6.698;2023-10-31T03:17:50;17.30;;;13.50;;
12271;SDS011;6198;51.446;6.698;2023-10-31T03:20:16;20.10;;;15.93;;
12271;SDS011;6198;51.446;6.698;2023-10-31T03:22:42;16.57;;;14.93;;
12271;SDS011;6198;51.446;6.698;2023-10-31T03:25:08;18.20;;;13.83;;
12271;SDS011;6198;51.446;6.698;2023-10-31T03:27:34;15.17;;;12.83;;
12271;SDS011;6198;51.446;6.698;2023-10-31T03:30:00;17.30;;;12.73;;
12271;SDS011;6198;51.446;6.698;2023-10-31T03:32:26;16.77;;;12.70;;
12271;SDS011;6198;51.446;6.698;2023-10-31T03:34:52;14.93;;;13.33;;
12271;SDS011;6198;51.446;6.698;2023-10-31T03:37:18;16.93;;;12.53;;
12271;SDS011;6198;51.446;6.698;2023-10-31T03:39:44;20.80;;;13.37;;
12271;SDS011;6198;51.446;6.698;2023-10-31T03:42:09;15.20;;;12.03;;
12271;SDS011;6198;51.446;6.698;2023-10-31T03:44:36;18.47;;;13.33;;
12271;SDS011;6198;51.446;6.698;2023-10-31T03:47:01;17.40;;;13.17;;
12271;SDS011;6198;51.446;6.698;2023-10-31T03:49:29;19.40;;;13.70;;
12271;SDS011;6198;51.446;6.698;2023-10-31T03:51:55;20.07;;;13.93;;
12271;SDS011;6198;51.446;6.698;2023-10-31T03:54:21;19.13;;;14.60;;
12271;SDS011;6198;51.446;6.698;2023-10-31T03:56:47;17.43;;;13.63;;
12271;SDS011;6198;51.446;6.698;2023-10-31T03:59:13;19.93;;;15.13;;
12271;SDS011;6198;51.446;6.698;2023-10-31T04:01:39;21.30;;;15.30;;
12271;SDS011;6198;51.446;6.698;2023-10-31T04:04:05;18.70;;;14.27;;
12271;SDS011;6198;51.446;6.698;2023-10-31T04:06:31;18.50;;;13.47;;
12271;SDS011;6198;51.446;6.698;2023-10-31T04:08:57;20.83;;;14.13;;
12271;SDS011;6198;51.446;6.698;2023-10-31T04:11:23;17.57;;;13.80;;
12271;SDS011;6198;51.446;6.698;2023-10-31T04:13:49;18.13;;;14.10;;
12271;SDS011;6198;51.446;6.698;2023-10-31T04:16:15;20.33;;;12.83;;
12271;SDS011;6198;51.446;6.698;2023-10-31T04:18:41;18.40;;;13.23;;
12271;SDS011;6198;51.446;6.698;2023-10-31T04:21:07;15.67;;;12.77;;
12271;SDS011;6198;51.446;6.698;2023-10-31T04:23:33;18.10;;;14.50;;
12271;SDS011;6198;51.446;6.698;2023-10-31T04:25:59;18.33;;;14.47;;
12271;SDS011;6198;51.446;6.698;2023-10-31T04:28:25;21.67;;;16.03;;
12271;SDS011;6198;51.446;6.698;2023-10-31T04:30:51;22.73;;;16.13;;
12271;SDS011;6198;51.446;6.698;2023-10-31T04:33:17;19.50;;;14.97;;
12271;SDS011;6198;51.446;6.698;2023-10-31T04:35:43;20.67;;;15.63;;
12271;SDS011;6198;51.446;6.698;2023-10-31T04:38:09;20.27;;;16.30;;
12271;SDS011;6198;51.446;6.698;2023-10-31T04:40:35;21.43;;;16.10;;
12271;SDS011;6198;51.446;6.698;2023-10-31T04:43:01;19.60;;;15.50;;
12271;SDS011;6198;51.446;6.698;2023-10-31T04:45:27;19.57;;;14.60;;
12271;SDS011;6198;51.446;6.698;2023-10-31T04:47:53;21.80;;;15.90;;
12271;SDS011;6198;51.446;6.698;2023-10-31T04:50:19;21.20;;;15.60;;
12271;SDS011;6198;51.446;6.698;2023-10-31T04:52:45;21.57;;;16.03;;
12271;SDS011;6198;51.446;6.698;2023-10-31T04:55:11;19.33;;;15.63;;
12271;SDS011;6198;51.446;6.698;2023-10-31T04:57:37;19.73;;;14.80;;
12271;SDS011;6198;51.446;6.698;2023-10-31T05:00:03;23.33;;;16.70;;
12271;SDS011;6198;51.446;6.698;2023-10-31T05:02:31;19.30;;;14.87;;
12271;SDS011;6198;51.446;6.698;2023-10-31T05:04:57;19.00;;;15.80;;
12271;SDS011;6198;51.446;6.698;2023-10-31T05:07:23;21.83;;;15.87;;
12271;SDS011;6198;51.446;6.698;2023-10-31T05:09:49;21.33;;;15.40;;
12271;SDS011;6198;51.446;6.698;2023-10-31T05:12:15;21.37;;;16.73;;
12271;SDS011;6198;51.446;6.698;2023-10-31T05:14:41;23.97;;;17.43;;
12271;SDS011;6198;51.446;6.698;2023-10-31T05:17:07;23.63;;;17.50;;
12271;SDS011;6198;51.446;6.698;2023-10-31T05:19:33;22.87;;;17.80;;
12271;SDS011;6198;51.446;6.698;2023-10-31T05:21:59;22.17;;;18.27;;
12271;SDS011;6198;51.446;6.698;2023-10-31T05:24:25;30.17;;;19.43;;
12271;SDS011;6198;51.446;6.698;2023-10-31T05:26:51;31.20;;;20.20;;
12271;SDS011;6198;51.446;6.698;2023-10-31T05:29:18;25.40;;;18.93;;
12271;SDS011;6198;51.446;6.698;2023-10-31T05:31:44;27.87;;;18.97;;
12271;SDS011;6198;51.446;6.698;2023-10-31T05:34:10;22.43;;;19.23;;
12271;SDS011;6198;51.446;6.698;2023-10-31T05:36:36;24.47;;;20.17;;
12271;SDS011;6198;51.446;6.698;2023-10-31T05:39:02;25.20;;;20.20;;
12271;SDS011;6198;51.446;6.698;2023-10-31T05:41:29;27.20;;;21.53;;
12271;SDS011;6198;51.446;6.698;2023-10-31T05:43:55;24.67;;;21.13;;
12271;SDS011;6198;51.446;6.698;2023-10-31T05:46:21;22.20;;;19.80;;
12271;SDS011;6198;51.446;6.698;2023-10-31T05:48:47;22.93;;;20.53;;
12271;SDS011;6198;51.446;6.698;2023-10-31T05:51:14;23.37;;;20.73;;
12271;SDS011;6198;51.446;6.698;2023-10-31T05:53:41;23.87;;;20.50;;
12271;SDS011;6198;51.446;6.698;2023-10-31T05:56:07;21.67;;;19.40;;
12271;SDS011;6198;51.446;6.698;2023-10-31T05:58:33;21.97;;;19.40;;
12271;SDS011;6198;51.446;6.698;2023-10-31T06:00:59;21.50;;;19.27;;
12271;SDS011;6198;51.446;6.698;2023-10-31T06:03:25;21.40;;;18.47;;
12271;SDS011;6198;51.446;6.698;2023-10-31T06:05:51;21.20;;;18.33;;
12271;SDS011;6198;51.446;6.698;2023-10-31T06:08:17;20.20;;;18.10;;
12271;SDS011;6198;51.446;6.698;2023-10-31T06:10:43;19.67;;;17.63;;
12271;SDS011;6198;51.446;6.698;2023-10-31T06:13:09;18.60;;;16.63;;
12271;SDS011;6198;51.446;6.698;2023-10-31T06:15:35;17.27;;;15.63;;
12271;SDS011;6198;51.446;6.698;2023-10-31T06:18:01;17.73;;;15.80;;
12271;SDS011;6198;51.446;6.698;2023-10-31T06:20:28;17.53;;;15.83;;
12271;SDS011;6198;51.446;6.698;2023-10-31T06:22:54;16.80;;;15.00;;
12271;SDS011;6198;51.446;6.698;2023-10-31T06:25:20;17.23;;;15.27;;
12271;SDS011;6198;51.446;6.698;2023-10-31T06:27:46;17.10;;;15.40;;
12271;SDS011;6198;51.446;6.698;2023-10-31T06:30:12;16.93;;;15.23;;
12271;SDS011;6198;51.446;6.698;2023-10-31T06:32:38;17.00;;;15.20;;
12271;SDS011;6198;51.446;6.698;2023-10-31T06:35:05;17.57;;;15.80;;
12271;SDS011;6198;51.446;6.698;2023-10-31T06:37:32;18.20;;;16.40;;
12271;SDS011;6198;51.446;6.698;2023-10-31T06:39:58;17.13;;;15.47;;
12271;SDS011;6198;51.446;6.698;2023-10-31T06:42:24;19.63;;;17.53;;
12271;SDS011;6198;51.446;6.698;2023-10-31T06:44:49;17.10;;;15.40;;
12271;SDS011;6198;51.446;6.698;2023-10-31T06:47:15;14.67;;;13.27;;
12271;SDS011;6198;51.446;6.698;2023-10-31T06:49:41;14.77;;;13.37;;
12271;SDS011;6198;51.446;6.698;2023-10-31T06:52:07;14.63;;;13.23;;
12271;SDS011;6198;51.446;6.698;2023-10-31T06:54:33;14.93;;;12.70;;
12271;SDS011;6198;51.446;6.698;2023-10-31T06:57:00;14.23;;;12.83;;
12271;SDS011;6198;51.446;6.698;2023-10-31T06:59:26;14.70;;;12.43;;
12271;SDS011;6198;51.446;6.698;2023-10-31T07:01:54;13.87;;;12.63;;
12271;SDS011;6198;51.446;6.698;2023-10-31T07:04:20;13.90;;;12.57;;
12271;SDS011;6198;51.446;6.698;2023-10-31T07:06:46;14.63;;;13.33;;
12271;SDS011;6198;51.446;6.698;2023-10-31T07:09:12;14.50;;;13.17;;
12271;SDS011;6198;51.446;6.698;2023-10-31T07:11:38;14.87;;;13.37;;
12271;SDS011;6198;51.446;6.698;2023-10-31T07:14:04;15.77;;;14.30;;
12271;SDS011;6198;51.446;6.698;2023-10-31T07:16:31;16.40;;;14.80;;
12271;SDS011;6198;51.446;6.698;2023-10-31T07:18:58;17.20;;;15.40;;
12271;SDS011;6198;51.446;6.698;2023-10-31T07:21:24;17.43;;;15.73;;
12271;SDS011;6198;51.446;6.698;2023-10-31T07:23:51;20.20;;;15.87;;
12271;SDS011;6198;51.446;6.698;2023-10-31T07:26:17;18.83;;;16.93;;
12271;SDS011;6198;51.446;6.698;2023-10-31T07:28:43;20.10;;;18.20;;
12271;SDS011;6198;51.446;6.698;2023-10-31T07:31:09;20.27;;;18.17;;
12271;SDS011;6198;51.446;6.698;2023-10-31T07:33:35;19.53;;;17.73;;
12271;SDS011;6198;51.446;6.698;2023-10-31T07:36:01;19.40;;;17.57;;
12271;SDS011;6198;51.446;6.698;2023-10-31T07:38:27;20.83;;;18.83;;
12271;SDS011;6198;51.446;6.698;2023-10-31T07:40:53;19.97;;;17.50;;
12271;SDS011;6198;51.446;6.698;2023-10-31T07:43:19;19.80;;;17.87;;
12271;SDS011;6198;51.446;6.698;2023-10-31T07:45:44;18.67;;;16.73;;
12271;SDS011;6198;51.446;6.698;2023-10-31T07:48:10;17.43;;;15.87;;
12271;SDS011;6198;51.446;6.698;2023-10-31T07:50:36;18.97;;;17.17;;
12271;SDS011;6198;51.446;6.698;2023-10-31T07:53:02;17.80;;;16.23;;
12271;SDS011;6198;51.446;6.698;2023-10-31T07:55:28;19.17;;;17.33;;
12271;SDS011;6198;51.446;6.698;2023-10-31T07:57:54;19.10;;;16.93;;
12271;SDS011;6198;51.446;6.698;2023-10-31T08:00:20;16.67;;;15.03;;
12271;SDS011;6198;51.446;6.698;2023-10-31T08:02:47;16.90;;;15.17;;
12271;SDS011;6198;51.446;6.698;2023-10-31T08:05:13;17.23;;;15.50;;
12271;SDS011;6198;51.446;6.698;2023-10-31T08:07:39;17.00;;;15.43;;
12271;SDS011;6198;51.446;6.698;2023-10-31T08:10:05;16.37;;;14.83;;
12271;SDS011;6198;51.446;6.698;2023-10-31T08:12:31;17.07;;;15.30;;
12271;SDS011;6198;51.446;6.698;2023-10-31T08:14:57;17.17;;;15.47;;
12271;SDS011;6198;51.446;6.698;2023-10-31T08:17:26;17.17;;;15.60;;
12271;SDS011;6198;51.446;6.698;2023-10-31T08:19:52;14.63;;;13.23;;
12271;SDS011;6198;51.446;6.698;2023-10-31T08:22:18;14.90;;;13.53;;
12271;SDS011;6198;51.446;6.698;2023-10-31T08:24:44;15.60;;;14.13;;
12271;SDS011;6198;51.446;6.698;2023-10-31T08:27:10;15.23;;;13.50;;
12271;SDS011;6198;51.446;6.698;2023-10-31T08:29:37;16.70;;;14.00;;
12271;SDS011;6198;51.446;6.698;2023-10-31T08:32:03;15.53;;;13.70;;
12271;SDS011;6198;51.446;6.698;2023-10-31T08:34:29;14.33;;;12.90;;
12271;SDS011;6198;51.446;6.698;2023-10-31T08:36:55;13.33;;;12.03;;
12271;SDS011;6198;51.446;6.698;2023-10-31T08:39:23;13.23;;;12.03;;
12271;SDS011;6198;51.446;6.698;2023-10-31T08:41:53;11.80;;;10.80;;
12271;SDS011;6198;51.446;6.698;2023-10-31T08:44:19;10.57;;;9.60;;
12271;SDS011;6198;51.446;6.698;2023-10-31T08:46:45;11.33;;;8.83;;
12271;SDS011;6198;51.446;6.698;2023-10-31T08:49:11;10.50;;;9.60;;
12271;SDS011;6198;51.446;6.698;2023-10-31T08:51:37;9.47;;;8.63;;
12271;SDS011;6198;51.446;6.698;2023-10-31T08:54:04;8.87;;;8.00;;
12271;SDS011;6198;51.446;6.698;2023-10-31T08:56:30;9.30;;;8.40;;
12271;SDS011;6198;51.446;6.698;2023-10-31T08:58:56;12.40;;;8.50;;
12271;SDS011;6198;51.446;6.698;2023-10-31T09:01:22;9.77;;;7.40;;
12271;SDS011;6198;51.446;6.698;2023-10-31T09:03:48;8.13;;;7.20;;
12271;SDS011;6198;51.446;6.698;2023-10-31T09:06:14;10.37;;;8.13;;
12271;SDS011;6198;51.446;6.698;2023-10-31T09:08:40;7.73;;;7.03;;
12271;SDS011;6198;51.446;6.698;2023-10-31T09:11:06;7.60;;;6.83;;
12271;SDS011;6198;51.446;6.698;2023-10-31T09:13:32;8.13;;;7.43;;
12271;SDS011;6198;51.446;6.698;2023-10-31T09:15:58;9.87;;;7.20;;
12271;SDS011;6198;51.446;6.698;2023-10-31T09:18:25;8.83;;;7.60;;
12271;SDS011;6198;51.446;6.698;2023-10-31T09:20:51;8.37;;;7.33;;
12271;SDS011;6198;51.446;6.698;2023-10-31T09:23:17;8.33;;;7.20;;
12271;SDS011;6198;51.446;6.698;2023-10-31T09:25:43;9.00;;;7.67;;
12271;SDS011;6198;51.446;6.698;2023-10-31T09:28:09;8.40;;;7.57;;
12271;SDS011;6198;51.446;6.698;2023-10-31T09:30:35;10.53;;;8.33;;
12271;SDS011;6198;51.446;6.698;2023-10-31T09:33:01;9.83;;;8.27;;
12271;SDS011;6198;51.446;6.698;2023-10-31T09:35:27;11.03;;;8.53;;
12271;SDS011;6198;51.446;6.698;2023-10-31T09:37:54;8.53;;;7.80;;
12271;SDS011;6198;51.446;6.698;2023-10-31T09:40:20;9.03;;;7.83;;
12271;SDS011;6198;51.446;6.698;2023-10-31T09:42:46;9.87;;;8.43;;
12271;SDS011;6198;51.446;6.698;2023-10-31T09:45:13;9.67;;;8.17;;
12271;SDS011;6198;51.446;6.698;2023-10-31T09:47:39;9.50;;;8.10;;
12271;SDS011;6198;51.446;6.698;2023-10-31T09:50:06;9.50;;;8.30;;
12271;SDS011;6198;51.446;6.698;2023-10-31T09:52:35;14.50;;;8.37;;
12271;SDS011;6198;51.446;6.698;2023-10-31T09:55:01;9.70;;;8.80;;
12271;SDS011;6198;51.446;6.698;2023-10-31T09:57:28;9.10;;;8.30;;
12271;SDS011;6198;51.446;6.698;2023-10-31T09:59:54;9.83;;;8.57;;
12271;SDS011;6198;51.446;6.698;2023-10-31T10:02:20;11.23;;;8.87;;
12271;SDS011;6198;51.446;6.698;2023-10-31T10:04:47;10.43;;;9.13;;
12271;SDS011;6198;51.446;6.698;2023-10-31T10:07:13;11.97;;;9.27;;
12271;SDS011;6198;51.446;6.698;2023-10-31T10:09:42;10.23;;;8.57;;
12271;SDS011;6198;51.446;6.698;2023-10-31T10:12:08;13.40;;;9.37;;
12271;SDS011;6198;51.446;6.698;2023-10-31T10:14:37;9.83;;;8.03;;
12271;SDS011;6198;51.446;6.698;2023-10-31T10:17:13;8.47;;;7.43;;
12271;SDS011;6198;51.446;6.698;2023-10-31T10:19:39;10.03;;;8.27;;
12271;SDS011;6198;51.446;6.698;2023-10-31T10:22:05;10.73;;;8.43;;
12271;SDS011;6198;51.446;6.698;2023-10-31T10:24:31;9.00;;;7.53;;
12271;SDS011;6198;51.446;6.698;2023-10-31T10:26:57;11.93;;;7.80;;
12271;SDS011;6198;51.446;6.698;2023-10-31T10:29:24;14.20;;;8.13;;
12271;SDS011;6198;51.446;6.698;2023-10-31T10:31:51;10.93;;;7.50;;
12271;SDS011;6198;51.446;6.698;2023-10-31T10:34:17;8.03;;;7.23;;
12271;SDS011;6198;51.446;6.698;2023-10-31T10:36:52;11.67;;;6.77;;
12271;SDS011;6198;51.446;6.698;2023-10-31T10:39:20;9.27;;;6.33;;
12271;SDS011;6198;51.446;6.698;2023-10-31T10:41:50;6.33;;;5.63;;
12271;SDS011;6198;51.446;6.698;2023-10-31T10:44:18;9.43;;;6.27;;
12271;SDS011;6198;51.446;6.698;2023-10-31T10:46:45;10.43;;;6.23;;
12271;SDS011;6198;51.446;6.698;2023-10-31T10:49:15;10.33;;;6.23;;
12271;SDS011;6198;51.446;6.698;2023-10-31T10:51:46;10.17;;;6.17;;
12271;SDS011;6198;51.446;6.698;2023-10-31T10:54:19;9.43;;;5.53;;
12271;SDS011;6198;51.446;6.698;2023-10-31T10:56:54;13.27;;;5.80;;
12271;SDS011;6198;51.446;6.698;2023-10-31T10:59:23;10.13;;;5.73;;
12271;SDS011;6198;51.446;6.698;2023-10-31T11:01:52;7.00;;;5.27;;
12271;SDS011;6198;51.446;6.698;2023-10-31T11:04:18;6.43;;;4.97;;
12271;SDS011;6198;51.446;6.698;2023-10-31T11:06:44;7.73;;;4.70;;
12271;SDS011;6198;51.446;6.698;2023-10-31T11:09:11;6.20;;;4.60;;
12271;SDS011;6198;51.446;6.698;2023-10-31T11:11:37;8.00;;;3.97;;
12271;SDS011;6198;51.446;6.698;2023-10-31T11:14:03;7.60;;;5.10;;
12271;SDS011;6198;51.446;6.698;2023-10-31T11:16:30;9.10;;;4.40;;
12271;SDS011;6198;51.446;6.698;2023-10-31T11:19:00;9.27;;;4.70;;
12271;SDS011;6198;51.446;6.698;2023-10-31T11:21:29;7.33;;;4.07;;
12271;SDS011;6198;51.446;6.698;2023-10-31T11:23:58;5.87;;;4.30;;
12271;SDS011;6198;51.446;6.698;2023-10-31T11:26:28;6.07;;;4.43;;
12271;SDS011;6198;51.446;6.698;2023-10-31T11:29:07;9.47;;;4.60;;
12271;SDS011;6198;51.446;6.698;2023-10-31T11:31:33;9.50;;;4.63;;
12271;SDS011;6198;51.446;6.698;2023-10-31T11:34:03;8.20;;;5.00;;
12271;SDS011;6198;51.446;6.698;2023-10-31T11:36:32;6.53;;;4.67;;
12271;SDS011;6198;51.446;6.698;2023-10-31T11:41:38;6.57;;;4.60;;
12271;SDS011;6198;51.446;6.698;2023-10-31T11:44:04;6.90;;;4.37;;
12271;SDS011;6198;51.446;6.698;2023-10-31T11:46:30;8.53;;;4.37;;
12271;SDS011;6198;51.446;6.698;2023-10-31T11:48:56;6.50;;;4.43;;
12271;SDS011;6198;51.446;6.698;2023-10-31T11:51:23;9.17;;;4.43;;
12271;SDS011;6198;51.446;6.698;2023-10-31T11:53:49;4.20;;;3.70;;
12271;SDS011;6198;51.446;6.698;2023-10-31T11:56:15;7.53;;;3.90;;
12271;SDS011;6198;51.446;6.698;2023-10-31T11:58:41;9.53;;;3.87;;
12271;SDS011;6198;51.446;6.698;2023-10-31T12:01:08;6.53;;;3.27;;
12271;SDS011;6198;51.446;6.698;2023-10-31T12:06:04;7.20;;;3.10;;
12271;SDS011;6198;51.446;6.698;2023-10-31T12:08:31;5.90;;;3.30;;
12271;SDS011;6198;51.446;6.698;2023-10-31T12:11:13;5.47;;;3.30;;
12271;SDS011;6198;51.446;6.698;2023-10-31T12:13:42;4.03;;;3.00;;
12271;SDS011;6198;51.446;6.698;2023-10-31T12:16:16;5.80;;;3.50;;
12271;SDS011;6198;51.446;6.698;2023-10-31T12:18:43;3.67;;;2.90;;
12271;SDS011;6198;51.446;6.698;2023-10-31T12:21:09;3.63;;;2.90;;
12271;SDS011;6198;51.446;6.698;2023-10-31T12:23:39;7.67;;;2.67;;
12271;SDS011;6198;51.446;6.698;2023-10-31T12:26:05;5.73;;;2.67;;
12271;SDS011;6198;51.446;6.698;2023-10-31T12:28:31;3.27;;;2.67;;
12271;SDS011;6198;51.446;6.698;2023-10-31T12:30:57;5.67;;;2.60;;
12271;SDS011;6198;51.446;6.698;2023-10-31T12:33:27;6.53;;;2.30;;
12271;SDS011;6198;51.446;6.698;2023-10-31T12:35:57;6.50;;;2.50;;
12271;SDS011;6198;51.446;6.698;2023-10-31T12:38:23;3.33;;;2.37;;
12271;SDS011;6198;51.446;6.698;2023-10-31T12:40:49;5.93;;;2.53;;
12271;SDS011;6198;51.446;6.698;2023-10-31T12:43:16;2.97;;;2.53;;
12271;SDS011;6198;51.446;6.698;2023-10-31T12:45:42;3.07;;;2.13;;
12271;SDS011;6198;51.446;6.698;2023-10-31T12:48:11;4.00;;;2.30;;
12271;SDS011;6198;51.446;6.698;2023-10-31T12:50:37;5.50;;;2.33;;
12271;SDS011;6198;51.446;6.698;2023-10-31T12:53:05;2.53;;;2.30;;
12271;SDS011;6198;51.446;6.698;2023-10-31T12:55:37;4.87;;;2.80;;
12271;SDS011;6198;51.446;6.698;2023-10-31T12:58:03;3.70;;;2.23;;
12271;SDS011;6198;51.446;6.698;2023-10-31T13:00:30;5.27;;;2.10;;
12271;SDS011;6198;51.446;6.698;2023-10-31T13:03:03;6.27;;;3.00;;
12271;SDS011;6198;51.446;6.698;2023-10-31T13:05:29;6.57;;;2.40;;
12271;SDS011;6198;51.446;6.698;2023-10-31T13:07:56;4.27;;;2.40;;
12271;SDS011;6198;51.446;6.698;2023-10-31T13:10:23;3.97;;;2.27;;
12271;SDS011;6198;51.446;6.698;2023-10-31T13:12:49;3.40;;;2.10;;
12271;SDS011;6198;51.446;6.698;2023-10-31T13:15:16;2.90;;;2.63;;
12271;SDS011;6198;51.446;6.698;2023-10-31T13:17:43;4.63;;;2.93;;
12271;SDS011;6198;51.446;6.698;2023-10-31T13:20:10;3.37;;;2.30;;
12271;SDS011;6198;51.446;6.698;2023-10-31T13:22:36;5.13;;;2.37;;
12271;SDS011;6198;51.446;6.698;2023-10-31T13:25:05;4.07;;;2.30;;
12271;SDS011;6198;51.446;6.698;2023-10-31T13:27:42;3.17;;;2.20;;
12271;SDS011;6198;51.446;6.698;2023-10-31T13:30:09;3.33;;;2.63;;
12271;SDS011;6198;51.446;6.698;2023-10-31T13:32:39;6.43;;;2.70;;
12271;SDS011;6198;51.446;6.698;2023-10-31T13:35:05;3.47;;;2.30;;
12271;SDS011;6198;51.446;6.698;2023-10-31T13:37:34;3.50;;;2.10;;
12271;SDS011;6198;51.446;6.698;2023-10-31T13:40:00;4.27;;;2.17;;
12271;SDS011;6198;51.446;6.698;2023-10-31T13:42:26;2.17;;;1.93;;
12271;SDS011;6198;51.446;6.698;2023-10-31T13:44:53;4.33;;;1.90;;
12271;SDS011;6198;51.446;6.698;2023-10-31T13:47:19;2.60;;;1.83;;
12271;SDS011;6198;51.446;6.698;2023-10-31T13:49:46;2.80;;;1.70;;
12271;SDS011;6198;51.446;6.698;2023-10-31T13:52:12;3.03;;;1.90;;
12271;SDS011;6198;51.446;6.698;2023-10-31T13:54:38;3.20;;;1.80;;
12271;SDS011;6198;51.446;6.698;2023-10-31T13:57:04;3.93;;;1.60;;
12271;SDS011;6198;51.446;6.698;2023-10-31T13:59:30;5.33;;;2.03;;
12271;SDS011;6198;51.446;6.698;2023-10-31T14:01:56;4.37;;;1.93;;
12271;SDS011;6198;51.446;6.698;2023-10-31T14:04:22;4.47;;;2.00;;
12271;SDS011;6198;51.446;6.698;2023-10-31T14:06:48;4.10;;;2.20;;
12271;SDS011;6198;51.446;6.698;2023-10-31T14:09:14;4.97;;;2.10;;
12271;SDS011;6198;51.446;6.698;2023-10-31T14:11:41;5.23;;;1.80;;
12271;SDS011;6198;51.446;6.698;2023-10-31T14:14:07;5.03;;;1.87;;
12271;SDS011;6198;51.446;6.698;2023-10-31T14:16:38;3.77;;;1.60;;
12271;SDS011;6198;51.446;6.698;2023-10-31T14:19:05;3.30;;;2.03;;
12271;SDS011;6198;51.446;6.698;2023-10-31T14:21:32;4.83;;;2.23;;
12271;SDS011;6198;51.446;6.698;2023-10-31T14:23:58;3.63;;;1.83;;
12271;SDS011;6198;51.446;6.698;2023-10-31T14:26:24;4.60;;;2.03;;
12271;SDS011;6198;51.446;6.698;2023-10-31T14:28:50;5.03;;;2.17;;
12271;SDS011;6198;51.446;6.698;2023-10-31T14:31:16;5.50;;;2.20;;
12271;SDS011;6198;51.446;6.698;2023-10-31T14:33:42;3.57;;;2.03;;
12271;SDS011;6198;51.446;6.698;2023-10-31T14:36:09;10.13;;;2.30;;
12271;SDS011;6198;51.446;6.698;2023-10-31T14:38:37;2.87;;;2.30;;
12271;SDS011;6198;51.446;6.698;2023-10-31T14:41:03;7.07;;;3.00;;
12271;SDS011;6198;51.446;6.698;2023-10-31T14:43:30;6.77;;;2.50;;
12271;SDS011;6198;51.446;6.698;2023-10-31T14:45:56;5.60;;;2.27;;
12271;SDS011;6198;51.446;6.698;2023-10-31T14:48:22;3.07;;;2.17;;